createdAt,value
2022-12-14T00:00:30.307Z,21.51
2022-12-14T00:02:57.473Z,21.50
2022-12-14T00:05:24.419Z,21.49
2022-12-14T00:07:51.307Z,21.48
2022-12-14T00:10:18.162Z,21.47
2022-12-14T00:12:45.065Z,21.46
2022-12-14T00:15:12.136Z,21.46
2022-12-14T00:17:39.937Z,21.45
2022-12-14T00:20:07.144Z,21.42
2022-12-14T00:22:34.053Z,21.40
2022-12-14T00:25:00.900Z,21.39
2022-12-14T00:27:28.177Z,21.38
2022-12-14T00:29:55.077Z,21.34
2022-12-14T00:32:23.345Z,21.34
2022-12-14T00:34:50.238Z,21.32
2022-12-14T00:37:17.117Z,21.29
2022-12-14T00:39:44.037Z,21.28
2022-12-14T00:42:10.899Z,21.26
2022-12-14T00:44:37.807Z,21.22
2022-12-14T00:47:04.707Z,21.22
2022-12-14T00:49:31.597Z,21.18
2022-12-14T00:51:58.517Z,21.18
2022-12-14T00:54:25.389Z,21.15
2022-12-14T00:56:52.259Z,21.11
2022-12-14T00:59:22.875Z,21.09
2022-12-14T01:01:52.741Z,21.05
2022-12-14T01:04:19.943Z,21.04
2022-12-14T01:06:47.552Z,21.00
2022-12-14T01:09:14.865Z,20.98
2022-12-14T01:11:48.177Z,20.95
2022-12-14T01:14:17.632Z,20.92
2022-12-14T01:16:44.852Z,20.90
2022-12-14T01:19:12.877Z,20.86
2022-12-14T01:21:39.966Z,20.84
2022-12-14T01:24:07.527Z,20.80
2022-12-14T01:26:37.098Z,20.76
2022-12-14T01:29:04.644Z,20.74
2022-12-14T01:31:32.880Z,20.72
2022-12-14T01:33:59.777Z,20.69
2022-12-14T01:36:27.737Z,20.66
2022-12-14T01:38:55.945Z,20.62
2022-12-14T01:41:23.020Z,20.60
2022-12-14T01:43:50.285Z,20.57
2022-12-14T01:46:21.183Z,20.53
2022-12-14T01:48:48.445Z,20.50
2022-12-14T01:51:15.444Z,20.48
2022-12-14T01:53:42.325Z,20.44
2022-12-14T01:56:09.276Z,20.40
2022-12-14T01:58:36.236Z,20.37
2022-12-14T02:01:03.577Z,20.32
2022-12-14T02:03:33.655Z,20.29
2022-12-14T02:06:03.213Z,20.25
2022-12-14T02:08:30.397Z,20.21
2022-12-14T02:10:57.864Z,20.17
2022-12-14T02:13:34.909Z,20.13
2022-12-14T02:16:01.820Z,20.07
2022-12-14T02:18:29.843Z,20.03
2022-12-14T02:20:56.936Z,19.99
2022-12-14T02:23:24.223Z,19.96
2022-12-14T02:26:03.387Z,19.93
2022-12-14T02:28:43.579Z,19.88
2022-12-14T02:31:10.737Z,19.82
2022-12-14T02:33:47.136Z,19.79
2022-12-14T02:36:19.326Z,19.75
2022-12-14T02:38:55.920Z,19.72
2022-12-14T02:41:29.997Z,19.68
2022-12-14T02:44:03.790Z,19.69
2022-12-14T02:46:33.913Z,19.73
2022-12-14T02:49:03.369Z,19.66
2022-12-14T02:51:52.816Z,19.60
2022-12-14T02:54:32.505Z,19.54
2022-12-14T02:57:09.414Z,19.47
2022-12-14T02:59:36.109Z,19.44
2022-12-14T03:02:03.743Z,19.41
2022-12-14T03:04:30.685Z,19.37
2022-12-14T03:07:02.871Z,19.32
2022-12-14T03:09:30.477Z,19.28
2022-12-14T03:12:07.272Z,19.25
2022-12-14T03:14:33.824Z,19.23
2022-12-14T03:17:09.537Z,19.19
2022-12-14T03:19:39.750Z,19.15
2022-12-14T03:22:09.461Z,19.11
2022-12-14T03:24:39.526Z,19.08
2022-12-14T03:27:10.152Z,19.05
2022-12-14T03:29:42.313Z,19.03
2022-12-14T03:32:11.143Z,19.00
2022-12-14T03:34:40.583Z,18.96
2022-12-14T03:37:07.189Z,18.92
2022-12-14T03:39:34.735Z,18.90
2022-12-14T03:42:16.500Z,18.88
2022-12-14T03:44:49.590Z,18.85
2022-12-14T03:47:35.043Z,18.81
2022-12-14T03:50:05.576Z,18.79
2022-12-14T03:52:36.459Z,18.74
2022-12-14T03:55:09.861Z,18.72
2022-12-14T03:57:39.238Z,18.68
2022-12-14T04:00:07.900Z,18.64
2022-12-14T04:02:42.843Z,18.60
2022-12-14T04:05:13.905Z,18.56
2022-12-14T04:07:56.137Z,18.56
2022-12-14T04:10:47.440Z,18.51
2022-12-14T04:13:38.051Z,18.50
2022-12-14T04:16:30.409Z,18.47
2022-12-14T04:19:03.569Z,18.44
2022-12-14T04:21:42.584Z,18.41
2022-12-14T04:24:32.829Z,18.38
2022-12-14T04:27:07.435Z,18.36
2022-12-14T04:29:53.815Z,18.31
2022-12-14T04:32:22.959Z,18.31
2022-12-14T04:34:57.214Z,18.28
2022-12-14T04:37:26.140Z,18.23
2022-12-14T04:39:54.851Z,18.22
2022-12-14T04:42:27.901Z,18.21
2022-12-14T04:44:58.757Z,18.17
2022-12-14T04:47:30.745Z,18.15
2022-12-14T04:50:00.487Z,18.14
2022-12-14T04:52:47.358Z,18.12
2022-12-14T04:55:16.942Z,18.09
2022-12-14T04:57:47.793Z,18.07
2022-12-14T05:00:15.069Z,18.07
2022-12-14T05:02:41.807Z,18.05
2022-12-14T05:05:11.252Z,18.02
2022-12-14T05:07:40.707Z,17.99
2022-12-14T05:10:12.781Z,17.97
2022-12-14T05:12:43.463Z,17.95
2022-12-14T05:15:21.159Z,17.91
2022-12-14T05:17:48.069Z,17.88
2022-12-14T05:20:15.997Z,17.87
2022-12-14T05:22:42.870Z,17.88
2022-12-14T05:25:09.678Z,17.88
2022-12-14T05:27:36.369Z,17.93
2022-12-14T05:30:03.566Z,17.97
2022-12-14T05:32:30.536Z,17.99
2022-12-14T05:34:57.202Z,18.01
2022-12-14T05:37:23.860Z,18.03
2022-12-14T05:39:50.504Z,18.06
2022-12-14T05:42:17.242Z,18.08
2022-12-14T05:44:43.854Z,18.12
2022-12-14T05:47:10.954Z,18.14
2022-12-14T05:49:37.598Z,18.18
2022-12-14T05:52:04.505Z,18.22
2022-12-14T05:54:31.225Z,18.27
2022-12-14T05:56:57.852Z,18.31
2022-12-14T05:59:24.548Z,18.36
2022-12-14T06:01:51.445Z,18.40
2022-12-14T06:04:18.727Z,18.45
2022-12-14T06:06:45.542Z,18.49
2022-12-14T06:09:14.428Z,18.54
2022-12-14T06:11:41.911Z,18.57
2022-12-14T06:14:09.204Z,18.62
2022-12-14T06:16:36.478Z,18.68
2022-12-14T06:19:04.432Z,18.73
2022-12-14T06:21:32.816Z,18.78
2022-12-14T06:24:00.084Z,18.81
2022-12-14T06:26:27.717Z,18.86
2022-12-14T06:28:55.385Z,18.91
2022-12-14T06:31:23.252Z,18.94
2022-12-14T06:33:50.230Z,18.98
2022-12-14T06:36:23.008Z,19.03
2022-12-14T06:38:52.184Z,19.07
2022-12-14T06:41:19.619Z,19.12
2022-12-14T06:43:49.760Z,19.17
2022-12-14T06:46:18.222Z,19.20
2022-12-14T06:48:48.911Z,19.24
2022-12-14T06:51:19.701Z,19.28
2022-12-14T06:53:46.796Z,19.32
2022-12-14T06:56:15.299Z,19.35
2022-12-14T06:58:42.496Z,19.39
2022-12-14T07:01:14.346Z,19.42
2022-12-14T07:03:41.621Z,19.46
2022-12-14T07:06:08.492Z,19.49
2022-12-14T07:08:36.104Z,19.52
2022-12-14T07:11:03.607Z,19.56
2022-12-14T07:13:30.830Z,19.59
2022-12-14T07:15:58.789Z,19.62
2022-12-14T07:18:31.417Z,19.66
2022-12-14T07:21:02.258Z,19.70
2022-12-14T07:23:30.395Z,19.73
2022-12-14T07:26:04.860Z,19.76
2022-12-14T07:28:32.028Z,19.79
2022-12-14T07:30:59.793Z,19.80
2022-12-14T07:33:27.381Z,19.81
2022-12-14T07:36:03.541Z,19.83
2022-12-14T07:38:30.507Z,19.84
2022-12-14T07:41:17.677Z,19.86
2022-12-14T07:43:49.814Z,19.89
2022-12-14T07:46:18.917Z,19.91
2022-12-14T07:48:46.742Z,19.92
2022-12-14T07:51:20.835Z,19.95
2022-12-14T07:53:48.622Z,19.99
2022-12-14T07:56:16.568Z,19.99
2022-12-14T07:58:43.338Z,20.02
2022-12-14T08:01:11.673Z,20.06
2022-12-14T08:03:39.185Z,19.83
2022-12-14T08:06:07.293Z,19.90
2022-12-14T08:08:34.221Z,19.93
2022-12-14T08:11:00.964Z,19.94
2022-12-14T08:13:28.430Z,19.97
2022-12-14T08:15:55.404Z,19.97
2022-12-14T08:18:26.121Z,19.99
2022-12-14T08:20:53.412Z,19.99
2022-12-14T08:23:20.158Z,19.99
2022-12-14T08:25:52.378Z,19.99
2022-12-14T08:28:19.518Z,20.01
2022-12-14T08:30:46.245Z,20.05
2022-12-14T08:33:12.896Z,20.07
2022-12-14T08:35:39.741Z,20.09
2022-12-14T08:38:06.595Z,20.09
2022-12-14T08:40:36.828Z,20.11
2022-12-14T08:43:03.828Z,20.13
2022-12-14T08:45:30.464Z,20.15
2022-12-14T08:47:58.399Z,20.18
2022-12-14T08:50:25.324Z,20.20
2022-12-14T08:52:52.394Z,20.22
2022-12-14T08:55:25.452Z,20.24
2022-12-14T08:57:54.399Z,20.26
2022-12-14T09:00:21.071Z,20.29
2022-12-14T09:02:50.046Z,20.31
2022-12-14T09:05:17.227Z,20.33
2022-12-14T09:07:43.881Z,20.34
2022-12-14T09:10:11.321Z,20.37
2022-12-14T09:12:45.177Z,20.39
2022-12-14T09:15:12.111Z,20.41
2022-12-14T09:17:38.931Z,20.42
2022-12-14T09:20:05.897Z,20.46
2022-12-14T09:22:32.650Z,20.46
2022-12-14T09:24:59.317Z,20.49
2022-12-14T09:27:26.013Z,20.50
2022-12-14T09:29:52.656Z,20.52
2022-12-14T09:32:19.229Z,20.55
2022-12-14T09:34:45.807Z,20.55
2022-12-14T09:37:12.804Z,20.58
2022-12-14T09:39:39.550Z,20.59
2022-12-14T09:42:35.718Z,20.62
2022-12-14T09:45:02.371Z,20.64
2022-12-14T09:47:32.823Z,20.64
2022-12-14T09:50:07.183Z,20.66
2022-12-14T09:52:41.112Z,20.66
2022-12-14T09:55:17.156Z,20.66
2022-12-14T09:57:44.421Z,20.66
2022-12-14T10:00:14.193Z,20.67
2022-12-14T10:02:46.534Z,20.66
2022-12-14T10:05:32.026Z,20.65
2022-12-14T10:08:04.316Z,20.65
2022-12-14T10:10:49.780Z,20.65
2022-12-14T10:13:21.114Z,20.65
2022-12-14T10:15:57.534Z,20.65
2022-12-14T10:18:58.979Z,20.63
2022-12-14T10:21:31.770Z,20.62
2022-12-14T10:24:01.020Z,20.60
2022-12-14T10:26:31.442Z,20.58
2022-12-14T10:29:27.518Z,20.57
2022-12-14T10:32:03.558Z,20.56
2022-12-14T10:34:31.314Z,20.53
2022-12-14T10:37:07.876Z,20.51
2022-12-14T10:39:43.635Z,20.48
2022-12-14T10:42:22.348Z,20.45
2022-12-14T10:45:04.383Z,20.42
2022-12-14T10:47:44.665Z,20.37
2022-12-14T10:50:20.432Z,20.31
2022-12-14T10:52:49.342Z,20.26
2022-12-14T10:55:18.849Z,20.20
2022-12-14T10:57:45.478Z,20.18
2022-12-14T11:00:22.600Z,20.13
2022-12-14T11:02:54.519Z,20.08
2022-12-14T11:05:24.379Z,20.03
2022-12-14T11:07:51.164Z,19.99
2022-12-14T11:10:25.930Z,19.95
2022-12-14T11:12:55.516Z,19.91
2022-12-14T11:15:33.693Z,19.88
2022-12-14T11:18:03.925Z,19.84
2022-12-14T11:20:30.865Z,19.81
2022-12-14T11:22:59.341Z,19.77
2022-12-14T11:25:35.544Z,19.77
2022-12-14T11:28:17.341Z,19.75
2022-12-14T11:31:16.544Z,19.76
2022-12-14T11:33:50.132Z,19.76
2022-12-14T11:36:23.208Z,19.77
2022-12-14T11:39:00.609Z,19.78
2022-12-14T11:41:38.635Z,19.79
2022-12-14T11:44:14.389Z,19.81
2022-12-14T11:46:59.249Z,19.81
2022-12-14T11:49:32.656Z,19.83
2022-12-14T11:52:00.970Z,19.83
2022-12-14T11:54:28.064Z,19.85
2022-12-14T11:57:03.174Z,19.86
2022-12-14T11:59:41.253Z,19.88
2022-12-14T12:02:22.434Z,19.89
2022-12-14T12:04:57.579Z,19.92
2022-12-14T12:07:44.408Z,19.93
2022-12-14T12:10:13.778Z,19.94
2022-12-14T12:12:52.608Z,19.97
2022-12-14T12:15:30.561Z,19.98
2022-12-14T12:18:01.217Z,20.01
2022-12-14T12:20:50.590Z,20.02
2022-12-14T12:23:20.379Z,20.04
2022-12-14T12:25:48.832Z,20.06
2022-12-14T12:28:20.863Z,20.05
2022-12-14T12:30:50.164Z,20.06
2022-12-14T12:33:29.076Z,20.05
2022-12-14T12:35:56.675Z,20.05
2022-12-14T12:38:26.325Z,20.06
2022-12-14T12:40:56.877Z,20.06
2022-12-14T12:43:50.235Z,20.06
2022-12-14T12:46:19.202Z,20.04
2022-12-14T12:48:48.947Z,20.03
2022-12-14T12:51:30.238Z,20.03
2022-12-14T12:53:59.948Z,20.02
2022-12-14T12:56:36.660Z,20.01
2022-12-14T12:59:04.470Z,20.00
2022-12-14T13:01:52.065Z,20.01
2022-12-14T13:04:32.395Z,20.02
2022-12-14T13:07:03.325Z,20.03
2022-12-14T13:09:39.844Z,20.04
2022-12-14T13:12:11.327Z,20.05
2022-12-14T13:14:42.415Z,20.06
2022-12-14T13:17:21.688Z,20.07
2022-12-14T13:19:52.663Z,20.09
2022-12-14T13:22:30.794Z,20.09
2022-12-14T13:25:26.897Z,20.09
2022-12-14T13:28:19.770Z,20.08
2022-12-14T13:30:53.740Z,20.08
2022-12-14T13:33:20.347Z,20.08
2022-12-14T13:35:47.036Z,20.07
2022-12-14T13:38:31.163Z,20.05
2022-12-14T13:41:17.271Z,20.08
2022-12-14T13:44:02.754Z,20.08
2022-12-14T13:46:30.055Z,20.09
2022-12-14T13:49:03.225Z,20.11
2022-12-14T13:51:31.077Z,20.17
2022-12-14T13:53:59.386Z,20.24
2022-12-14T13:56:34.141Z,20.27
2022-12-14T13:59:03.133Z,20.31
2022-12-14T14:01:48.114Z,20.33
2022-12-14T14:04:18.646Z,20.34
2022-12-14T14:06:47.803Z,20.36
2022-12-14T14:09:24.793Z,20.37
2022-12-14T14:12:01.725Z,20.37
2022-12-14T14:14:37.341Z,20.37
2022-12-14T14:17:09.498Z,20.37
2022-12-14T14:19:39.695Z,20.37
2022-12-14T14:22:26.055Z,20.37
2022-12-14T14:24:53.065Z,20.35
2022-12-14T14:27:20.710Z,20.35
2022-12-14T14:29:49.336Z,20.33
2022-12-14T14:32:37.374Z,20.31
2022-12-14T14:35:06.171Z,20.30
2022-12-14T14:37:34.729Z,20.29
2022-12-14T14:40:13.274Z,20.26
2022-12-14T14:42:53.332Z,20.22
2022-12-14T14:45:38.077Z,20.21
2022-12-14T14:48:23.214Z,20.18
2022-12-14T14:51:01.164Z,20.15
2022-12-14T14:53:29.239Z,20.12
2022-12-14T14:56:05.135Z,20.11
2022-12-14T14:58:39.260Z,20.07
2022-12-14T15:01:06.486Z,20.04
2022-12-14T15:03:43.464Z,19.99
2022-12-14T15:06:15.811Z,19.96
2022-12-14T15:08:47.943Z,19.92
2022-12-14T15:11:19.421Z,19.89
2022-12-14T15:13:48.309Z,19.85
2022-12-14T15:16:21.545Z,19.80
2022-12-14T15:18:53.994Z,19.77
2022-12-14T15:21:20.719Z,19.73
2022-12-14T15:23:52.407Z,19.69
2022-12-14T15:26:21.241Z,19.66
2022-12-14T15:28:52.210Z,19.61
2022-12-14T15:32:01.269Z,19.57
2022-12-14T15:34:28.295Z,19.53
2022-12-14T15:36:55.407Z,19.50
2022-12-14T15:39:29.705Z,19.47
2022-12-14T15:42:03.835Z,19.43
2022-12-14T15:44:30.406Z,19.42
2022-12-14T15:46:57.055Z,19.38
2022-12-14T15:49:23.984Z,19.34
2022-12-14T15:51:51.471Z,19.31
2022-12-14T15:54:19.826Z,19.28
2022-12-14T15:56:51.053Z,19.24
2022-12-14T15:59:21.802Z,19.20
2022-12-14T16:01:55.283Z,19.18
2022-12-14T16:04:25.993Z,19.14
2022-12-14T16:07:08.471Z,19.09
2022-12-14T16:09:38.132Z,19.05
2022-12-14T16:12:08.160Z,19.01
2022-12-14T16:14:44.130Z,18.96
2022-12-14T16:17:16.633Z,18.94
2022-12-14T16:19:59.667Z,18.90
2022-12-14T16:22:28.418Z,18.87
2022-12-14T16:25:00.692Z,18.85
2022-12-14T16:27:28.320Z,18.81
2022-12-14T16:30:05.191Z,18.77
2022-12-14T16:32:31.836Z,18.73
2022-12-14T16:34:59.716Z,18.70
2022-12-14T16:37:41.876Z,18.66
2022-12-14T16:40:34.992Z,18.62
2022-12-14T16:43:02.403Z,18.58
2022-12-14T16:45:46.174Z,18.57
2022-12-14T16:48:22.431Z,18.52
2022-12-14T16:50:57.392Z,18.49
2022-12-14T16:53:30.021Z,18.46
2022-12-14T16:56:05.274Z,18.44
2022-12-14T16:58:32.348Z,18.40
2022-12-14T17:01:01.780Z,18.38
2022-12-14T17:03:30.818Z,18.36
2022-12-14T17:06:01.765Z,18.33
2022-12-14T17:08:28.508Z,18.31
2022-12-14T17:10:55.515Z,18.27
2022-12-14T17:13:22.117Z,18.25
2022-12-14T17:16:07.964Z,18.21
2022-12-14T17:18:37.899Z,18.17
2022-12-14T17:21:05.612Z,18.14
2022-12-14T17:23:32.788Z,18.10
2022-12-14T17:25:59.837Z,18.07
2022-12-14T17:28:28.352Z,18.04
2022-12-14T17:30:57.569Z,18.01
2022-12-14T17:33:27.999Z,17.99
2022-12-14T17:35:55.537Z,17.95
2022-12-14T17:38:22.552Z,17.92
2022-12-14T17:40:50.647Z,17.89
2022-12-14T17:43:22.362Z,17.86
2022-12-14T17:45:49.084Z,17.83
2022-12-14T17:48:16.693Z,17.80
2022-12-14T17:50:44.842Z,17.77
2022-12-14T17:53:15.189Z,17.76
2022-12-14T17:55:41.833Z,17.72
2022-12-14T17:58:10.215Z,17.70
2022-12-14T18:00:55.842Z,17.68
2022-12-14T18:03:22.529Z,17.64
2022-12-14T18:05:49.872Z,17.61
2022-12-14T18:08:20.100Z,17.60
2022-12-14T18:10:47.560Z,17.58
2022-12-14T18:13:14.249Z,17.55
2022-12-14T18:15:49.617Z,17.53
2022-12-14T18:18:17.766Z,17.50
2022-12-14T18:20:45.455Z,17.49
2022-12-14T18:23:16.576Z,17.47
2022-12-14T18:26:05.385Z,17.44
2022-12-14T18:28:32.200Z,17.42
2022-12-14T18:31:02.168Z,17.41
2022-12-14T18:33:29.222Z,17.38
2022-12-14T18:35:56.987Z,17.35
2022-12-14T18:38:24.129Z,17.32
2022-12-14T18:40:51.765Z,17.31
2022-12-14T18:43:23.782Z,17.29
2022-12-14T18:45:51.683Z,17.26
2022-12-14T18:48:18.312Z,17.22
2022-12-14T18:50:45.130Z,17.20
2022-12-14T18:53:15.617Z,17.18
2022-12-14T18:55:42.890Z,17.19
2022-12-14T18:58:14.696Z,17.20
2022-12-14T19:00:41.426Z,17.21
2022-12-14T19:03:08.327Z,17.22
2022-12-14T19:05:35.321Z,17.25
2022-12-14T19:08:02.003Z,17.26
2022-12-14T19:10:31.245Z,17.29
2022-12-14T19:12:58.367Z,17.33
2022-12-14T19:15:38.522Z,17.37
2022-12-14T19:18:05.285Z,17.42
2022-12-14T19:20:32.075Z,17.45
2022-12-14T19:22:58.945Z,17.49
2022-12-14T19:25:25.797Z,17.53
2022-12-14T19:30:40.841Z,17.61
2022-12-14T19:33:07.470Z,17.65
2022-12-14T19:35:34.093Z,17.69
2022-12-14T19:38:02.657Z,17.73
2022-12-14T19:40:29.328Z,17.79
2022-12-14T19:42:57.166Z,17.82
2022-12-14T19:45:23.791Z,17.86
2022-12-14T19:47:50.863Z,17.90
2022-12-14T19:50:17.655Z,17.95
2022-12-14T19:52:44.313Z,18.00
2022-12-14T19:55:12.130Z,18.04
2022-12-14T19:57:39.531Z,18.09
2022-12-14T20:00:06.914Z,18.13
2022-12-14T20:02:35.212Z,18.18
2022-12-14T20:05:02.032Z,18.22
2022-12-14T20:07:30.114Z,18.26
2022-12-14T20:09:56.991Z,18.31
2022-12-14T20:12:25.561Z,18.35
2022-12-14T20:14:52.340Z,18.39
2022-12-14T20:17:19.494Z,18.44
2022-12-14T20:19:46.261Z,18.47
2022-12-14T20:22:15.127Z,18.51
2022-12-14T20:24:43.329Z,18.55
2022-12-14T20:27:10.305Z,18.59
2022-12-14T20:29:37.513Z,18.63
2022-12-14T20:32:07.015Z,18.67
2022-12-14T20:34:33.624Z,18.71
2022-12-14T20:37:00.914Z,18.75
2022-12-14T20:39:27.669Z,18.79
2022-12-14T20:41:54.729Z,18.83
2022-12-14T20:44:21.458Z,18.86
2022-12-14T20:46:51.898Z,18.90
2022-12-14T20:49:19.831Z,18.91
2022-12-14T20:51:47.397Z,18.97
2022-12-14T20:54:15.602Z,19.01
2022-12-14T20:56:43.530Z,19.02
2022-12-14T20:59:10.688Z,19.06
2022-12-14T21:01:38.773Z,19.09
2022-12-14T21:04:06.901Z,19.12
2022-12-14T21:06:36.336Z,19.16
2022-12-14T21:09:05.756Z,19.19
2022-12-14T21:12:01.819Z,19.22
2022-12-14T21:14:31.573Z,19.25
2022-12-14T21:17:00.805Z,19.27
2022-12-14T21:19:28.388Z,19.29
2022-12-14T21:21:55.157Z,19.34
2022-12-14T21:24:44.728Z,19.37
2022-12-14T21:27:10.216Z,19.40
2022-12-14T21:29:36.868Z,19.42
2022-12-14T21:32:04.497Z,19.44
2022-12-14T21:34:32.027Z,19.47
2022-12-14T21:36:59.181Z,19.50
2022-12-14T21:39:25.936Z,19.52
2022-12-14T21:42:10.728Z,19.54
2022-12-14T21:44:37.674Z,19.57
2022-12-14T21:47:05.549Z,19.60
2022-12-14T21:49:32.244Z,19.63
2022-12-14T21:51:58.913Z,19.64
2022-12-14T21:54:25.951Z,19.68
2022-12-14T21:57:11.213Z,19.70
2022-12-14T21:59:39.084Z,19.73
2022-12-14T22:02:07.630Z,19.75
2022-12-14T22:04:39.563Z,19.76
2022-12-14T22:07:06.570Z,19.79
2022-12-14T22:09:33.234Z,19.81
2022-12-14T22:11:59.848Z,19.83
2022-12-14T22:14:31.778Z,19.84
2022-12-14T22:16:58.416Z,19.87
2022-12-14T22:19:25.369Z,19.89
2022-12-14T22:21:52.745Z,19.91
2022-12-14T22:24:21.111Z,19.92
2022-12-14T22:26:48.198Z,19.95
2022-12-14T22:29:16.090Z,19.98
2022-12-14T22:31:43.320Z,20.00
2022-12-14T22:34:20.685Z,20.02
2022-12-14T22:36:48.020Z,20.04
2022-12-14T22:39:14.853Z,20.07
2022-12-14T22:41:41.646Z,20.09
2022-12-14T22:44:09.756Z,20.10
2022-12-14T22:46:36.452Z,20.13
2022-12-14T22:49:04.302Z,20.17
2022-12-14T22:51:31.071Z,20.20
2022-12-14T22:53:57.951Z,20.22
2022-12-14T22:56:46.182Z,20.25
2022-12-14T22:59:17.631Z,20.28
2022-12-14T23:01:50.028Z,20.31
2022-12-14T23:04:17.835Z,20.34
2022-12-14T23:06:45.665Z,20.37
2022-12-14T23:09:30.875Z,20.41
2022-12-14T23:12:21.579Z,20.44
2022-12-14T23:15:14.086Z,20.47
2022-12-14T23:18:07.498Z,20.50
2022-12-14T23:20:53.307Z,20.52
2022-12-14T23:23:39.195Z,20.54
2022-12-14T23:26:25.029Z,20.58
2022-12-14T23:29:10.770Z,20.58
2022-12-14T23:31:56.079Z,20.63
2022-12-14T23:34:41.256Z,20.66
2022-12-14T23:37:26.831Z,20.68
2022-12-14T23:40:11.790Z,20.70
2022-12-14T23:42:56.998Z,20.73
2022-12-14T23:45:42.142Z,20.75
2022-12-14T23:48:27.247Z,20.76
2022-12-14T23:51:13.045Z,20.78
2022-12-14T23:53:57.970Z,20.80
2022-12-14T23:56:43.046Z,20.82
2022-12-14T23:59:32.831Z,20.84
